CFGMU CYKF-CYKF
Flight info
| Callsign | CFGMU |
|---|---|
| Flight time | 0h 4m |
| Altitude | 3000 |
| Route | VFR |
| Aircraft | C172 |
Departure
| Time | 2026-05-06 01:21 |
|---|---|
| Airport | Region of Waterloo International Airport (CYKF) |
Arrival
| Time | 2026-05-06 01:26 |
|---|---|
| Airport | Region of Waterloo International Airport (CYKF) |
| Time | Latitude | Longitude | Altitude | Speed | Heading |
|---|---|---|---|---|---|
| 2026-05-06 01:14 | 43.45404 | -80.38484 | 1026 ft | 9 kts | 40° |
| 2026-05-06 01:15 | 43.45444 | -80.38438 | 1027 ft | 6 kts | 33° |
| 2026-05-06 01:15 | 43.45489 | -80.38393 | 1027 ft | 10 kts | 40° |
| 2026-05-06 01:15 | 43.45534 | -80.38342 | 1027 ft | 7 kts | 37° |
| 2026-05-06 01:15 | 43.45577 | -80.38312 | 1026 ft | 8 kts | 330° |
| 2026-05-06 01:16 | 43.45620 | -80.38381 | 1025 ft | 10 kts | 307° |
| 2026-05-06 01:16 | 43.45658 | -80.38448 | 1026 ft | 8 kts | 309° |
| 2026-05-06 01:16 | 43.45696 | -80.38513 | 1027 ft | 12 kts | 309° |
| 2026-05-06 01:16 | 43.45747 | -80.38587 | 1028 ft | 7 kts | 355° |
| 2026-05-06 01:17 | 43.45774 | -80.38545 | 1028 ft | 6 kts | 63° |
| 2026-05-06 01:17 | 43.45804 | -80.38462 | 1028 ft | 16 kts | 65° |
| 2026-05-06 01:17 | 43.45851 | -80.38321 | 1025 ft | 15 kts | 64° |
| 2026-05-06 01:17 | 43.45889 | -80.38206 | 1023 ft | 12 kts | 66° |
| 2026-05-06 01:18 | 43.45922 | -80.38112 | 1023 ft | 10 kts | 65° |
| 2026-05-06 01:18 | 43.45956 | -80.38011 | 1023 ft | 15 kts | 66° |
| 2026-05-06 01:18 | 43.45999 | -80.37883 | 1023 ft | 13 kts | 66° |
| 2026-05-06 01:18 | 43.46031 | -80.37787 | 1025 ft | 9 kts | 65° |
| 2026-05-06 01:19 | 43.46067 | -80.37723 | 1026 ft | 7 kts | 22° |
| 2026-05-06 01:19 | 43.46125 | -80.37693 | 1025 ft | 4 kts | 16° |
| 2026-05-06 01:19 | 43.46132 | -80.37690 | 1025 ft | 0 kts | 12° |
| 2026-05-06 01:19 | 43.46133 | -80.37690 | 1025 ft | 3 kts | 13° |
| 2026-05-06 01:20 | 43.46197 | -80.37726 | 1025 ft | 12 kts | 323° |
| 2026-05-06 01:20 | 43.46221 | -80.37723 | 1026 ft | 0 kts | 66° |
| 2026-05-06 01:20 | 43.46249 | -80.37637 | 1026 ft | 35 kts | 65° |
| 2026-05-06 01:20 | 43.46425 | -80.37118 | 1064 ft | 76 kts | 66° |
| 2026-05-06 01:21 | 43.46649 | -80.36449 | 1303 ft | 77 kts | 66° |
| 2026-05-06 01:21 | 43.46969 | -80.35844 | 1527 ft | 80 kts | 27° |
| 2026-05-06 01:21 | 43.47442 | -80.36015 | 1783 ft | 81 kts | 324° |
| 2026-05-06 01:21 | 43.47555 | -80.36703 | 1979 ft | 85 kts | 248° |
| 2026-05-06 01:22 | 43.47287 | -80.37497 | 2090 ft | 96 kts | 243° |
| 2026-05-06 01:22 | 43.47003 | -80.38273 | 2164 ft | 86 kts | 243° |
| 2026-05-06 01:22 | 43.46739 | -80.39064 | 2191 ft | 97 kts | 246° |
| 2026-05-06 01:22 | 43.46464 | -80.39951 | 2191 ft | 104 kts | 248° |
| 2026-05-06 01:23 | 43.46190 | -80.40868 | 2174 ft | 99 kts | 247° |
| 2026-05-06 01:23 | 43.45933 | -80.41661 | 2293 ft | 86 kts | 244° |
| 2026-05-06 01:23 | 43.45632 | -80.42432 | 2390 ft | 97 kts | 242° |
| 2026-05-06 01:23 | 43.45288 | -80.43289 | 2479 ft | 104 kts | 239° |
| 2026-05-06 01:24 | 43.44762 | -80.43664 | 2424 ft | 90 kts | 165° |
| 2026-05-06 01:24 | 43.44421 | -80.42940 | 2176 ft | 91 kts | 82° |
| 2026-05-06 01:24 | 43.44630 | -80.42211 | 1885 ft | 71 kts | 60° |
| 2026-05-06 01:24 | 43.44894 | -80.41629 | 1661 ft | 70 kts | 60° |
| 2026-05-06 01:25 | 43.45099 | -80.41017 | 1478 ft | 70 kts | 65° |
| 2026-05-06 01:25 | 43.45300 | -80.40440 | 1331 ft | 64 kts | 66° |
| 2026-05-06 01:25 | 43.45483 | -80.39899 | 1232 ft | 64 kts | 64° |
| 2026-05-06 01:25 | 43.45677 | -80.39331 | 1116 ft | 64 kts | 67° |
| 2026-05-06 01:26 | 43.45853 | -80.38811 | 1032 ft | 50 kts | 68° |
| 2026-05-06 01:26 | 43.45907 | -80.38648 | 1029 ft | 0 kts | 65° |
| 2026-05-06 01:26 | 43.45914 | -80.38627 | 1029 ft | 18 kts | 65° |
| 2026-05-06 01:27 | 43.46018 | -80.38322 | 1031 ft | 64 kts | 64° |